Time;durP1;ratioP1;P1;durP2;ratioP2;P2;SDS_P1;SDS_P2;PMS_P1;PMS_P2;Temp;Humidity;BMP_temperature;BMP_pressure;BME280_temperature;BME280_humidity;BME280_pressure;Samples;Min_cycle;Max_cycle;Signal;HPM_P1;HPM_P2
2021/09/04 00:00:22;;;;;;;;;22.33;19.67;;;;;23.23;53.08;101214.34;4901121;28;48323;-92
2021/09/04 00:03:14;;;;;;;;;23.33;19.33;;;;;23.19;52.70;101210.00;4905645;28;45853;-92
2021/09/04 00:05:48;;;;;;;;;23.33;20.67;;;;;23.05;52.57;101185.38;4964101;22;45219;-93
2021/09/04 00:08:46;;;;;;;;;;;;;;;;;;;;;
2021/09/04 00:11:11;;;;;;;;;26.33;23.00;;;;;22.99;52.51;101181.94;5083495;28;75120;-91
2021/09/04 00:13:40;;;;;;;;;20.33;17.67;;;;;23.06;52.81;101193.38;5087027;28;45325;-91
2021/09/04 00:16:05;;;;;;;;;24.67;22.33;;;;;23.06;52.54;101200.53;5083141;28;45477;-92
2021/09/04 00:22:29;;;;;;;;;23.33;20.67;;;;;23.11;53.16;101218.25;5083022;28;47300;-92
2021/09/04 00:25:09;;;;;;;;;23.00;18.67;;;;;23.02;52.51;101207.78;5039984;28;45388;-92
2021/09/04 00:28:48;;;;;;;;;24.33;23.00;;;;;22.97;53.13;101207.03;5026032;28;45473;-92
2021/09/04 00:31:21;;;;;;;;;23.00;20.33;;;;;22.91;52.76;101197.34;5006527;28;45440;-93
2021/09/04 00:33:46;;;;;;;;;20.67;19.67;;;;;22.99;53.23;101202.50;5005868;28;47334;-92
2021/09/04 00:36:41;;;;;;;;;22.33;19.33;;;;;22.98;52.96;101209.66;5017056;28;44832;-92
2021/09/04 00:39:09;;;;;;;;;20.33;18.00;;;;;22.84;52.59;101185.94;5021636;28;44834;-92
2021/09/04 00:41:35;;;;;;;;;23.67;20.67;;;;;22.87;53.30;101193.00;5020157;28;45519;-91
2021/09/04 00:44:32;;;;;;;;;22.00;16.67;;;;;22.94;53.04;101209.78;5025265;28;47205;-91
2021/09/04 00:50:28;;;;;;;;;18.50;17.50;;;;;22.73;53.14;101183.53;5010865;28;45359;-91
2021/09/04 00:52:55;;;;;;;;;20.33;18.33;;;;;22.75;53.10;101192.41;4984709;28;45155;-92
2021/09/04 00:55:24;;;;;;;;;21.00;18.00;;;;;22.78;53.43;101194.13;4999189;28;47260;-92
2021/09/04 00:57:53;;;;;;;;;19.67;17.67;;;;;22.75;53.62;101200.44;5003940;28;45815;-91
2021/09/04 01:01:09;;;;;;;;;20.67;19.33;;;;;22.63;53.26;101179.31;5012609;28;45352;-91
2021/09/04 01:03:34;;;;;;;;;20.00;18.33;;;;;22.65;53.78;101190.88;4926455;28;45688;-91
2021/09/04 01:06:40;;;;;;;;;21.33;20.33;;;;;22.69;53.73;101197.94;4915829;28;45287;-93
2021/09/04 01:13:09;;;;;;;;;19.67;18.33;;;;;22.66;53.64;101204.25;4807371;29;45332;-93
2021/09/04 01:15:36;;;;;;;;;22.50;21.50;;;;;22.50;53.76;101176.94;4792821;29;45597;-93
2021/09/04 01:18:05;;;;;;;;;20.00;18.00;;;;;22.62;53.62;101198.97;4793848;29;47495;-92
2021/09/04 01:20:39;;;;;;;;;25.33;20.67;;;;;22.60;53.66;101196.34;4792882;29;45560;-93
2021/09/04 01:23:05;;;;;;;;;23.33;18.67;;;;;22.45;53.97;101173.50;4808241;29;45407;-91
2021/09/04 01:25:32;;;;;;;;;23.33;20.67;;;;;22.52;53.73;101188.50;4809167;29;45486;-92
2021/09/04 01:28:03;;;;;;;;;24.33;21.33;;;;;22.40;54.07;101168.25;4870754;28;45516;-93
2021/09/04 01:30:37;;;;;;;;;24.00;21.67;;;;;22.37;53.72;101163.00;4903692;28;45466;-92
2021/09/04 01:36:42;;;;;;;;;23.33;19.33;;;;;22.47;54.12;101190.41;5040955;28;45993;-91
2021/09/04 01:39:14;;;;;;;;;22.33;19.67;;;;;22.42;53.76;101184.31;5041813;28;47165;-91
2021/09/04 01:41:41;;;;;;;;;21.33;17.33;;;;;22.42;53.73;101184.31;5024735;28;45719;-91
2021/09/04 01:44:36;;;;;;;;;17.67;17.67;;;;;22.44;53.73;101193.19;5042640;28;45462;-92
2021/09/04 01:47:02;;;;;;;;;20.67;18.00;;;;;22.46;53.88;101193.13;5041875;28;45470;-93
2021/09/04 01:49:55;;;;;;;;;15.00;15.00;;;;;22.43;53.82;101194.97;5041694;28;47880;-92
2021/09/04 01:52:21;;;;;;;;;18.33;16.33;;;;;22.41;53.96;101196.81;5036116;28;45453;-92
2021/09/04 01:57:41;;;;;;;;;23.67;17.67;;;;;22.31;54.13;101185.47;4980843;28;45560;-94
2021/09/04 02:00:58;;;;;;;;;;;;;;;;;;;;;
2021/09/04 02:04:13;;;;;;;;;17.67;15.33;;;;;22.27;54.35;101183.75;4976705;28;45498;-93
2021/09/04 02:06:39;;;;;;;;;20.00;17.67;;;;;22.31;54.33;101190.81;4921021;28;45454;-92
2021/09/04 02:09:07;;;;;;;;;21.00;18.67;;;;;22.19;54.38;101170.56;4921899;28;45561;-93
2021/09/04 02:11:35;;;;;;;;;23.00;20.00;;;;;22.19;54.38;101170.56;4905996;28;46357;-92
2021/09/04 02:15:00;;;;;;;;;;;;;;;;;;;;;
2021/09/04 02:17:26;;;;;;;;;23.33;18.33;;;;;22.29;54.28;101181.06;4921686;28;67959;-92
2021/09/04 02:19:54;;;;;;;;;19.67;19.00;;;;;22.12;54.28;101160.03;5004636;22;45590;-92
2021/09/04 02:22:20;;;;;;;;;15.00;15.00;;;;;22.16;54.59;101165.28;5024008;28;47304;-93
2021/09/04 02:24:47;;;;;;;;;20.00;18.67;;;;;22.14;54.36;101161.78;5023770;28;45368;-93
2021/09/04 02:27:13;;;;;;;;;19.00;18.00;;;;;22.14;54.42;101163.56;5023432;28;45544;-94
2021/09/04 02:29:48;;;;;;;;;;;;;;;;;;;;;
2021/09/04 02:32:14;;;;;;;;;19.00;19.00;;;;;22.20;54.59;101171.44;5039952;28;75696;-93
2021/09/04 02:34:47;;;;;;;;;21.00;17.00;;;;;22.18;54.60;101176.84;5024382;28;45308;-93
2021/09/04 02:38:28;;;;;;;;;;;;;;;;;;;;;
2021/09/04 02:40:54;;;;;;;;;20.33;18.67;;;;;22.15;54.45;101176.00;4921100;28;62882;-93
2021/09/04 02:43:19;;;;;;;;;19.33;17.33;;;;;22.02;55.09;101152.22;4905628;28;47079;-93
2021/09/04 02:45:55;;;;;;;;;22.67;19.00;;;;;22.03;55.14;101159.34;4906980;28;45485;-93
2021/09/04 02:48:22;;;;;;;;;19.33;17.00;;;;;22.01;54.95;101150.47;4929751;28;45306;-92
2021/09/04 02:50:50;;;;;;;;;18.33;18.33;;;;;22.19;54.53;101173.22;4921587;28;45474;-93
2021/09/04 02:53:37;;;;;;;;;19.33;16.00;;;;;22.18;54.91;101182.19;4921786;28;45589;-91
2021/09/04 02:56:06;;;;;;;;;18.33;18.33;;;;;22.02;54.82;101151.38;4926962;28;45370;-93
2021/09/04 02:59:37;;;;;;;;;;;;;;;;;;;;;
2021/09/04 03:02:37;;;;;;;;;20.00;19.00;;;;;22.17;55.18;101176.84;4823119;29;64504;-92
2021/09/04 03:05:31;;;;;;;;;21.33;18.33;;;;;22.01;54.79;101155.81;4831221;29;45313;-92
2021/09/04 03:09:00;;;;;;;;;;;;;;;;;;;;;
2021/09/04 03:11:33;;;;;;;;;19.67;17.67;;;;;21.98;54.93;101150.53;5048157;22;69932;-92
2021/09/04 03:14:01;;;;;;;;;22.67;18.00;;;;;22.00;55.17;101158.56;5035982;28;45434;-92
2021/09/04 03:16:28;;;;;;;;;18.33;17.33;;;;;22.10;54.95;101168.97;5038657;28;47196;-92
2021/09/04 03:19:32;;;;;;;;;21.33;19.33;;;;;21.97;54.69;101152.34;5050369;28;45083;-90
2021/09/04 03:21:58;;;;;;;;;18.00;16.67;;;;;22.00;54.86;101142.50;4969792;28;44772;-90
2021/09/04 03:24:40;;;;;;;;;;;;;;;;;;;;;
2021/09/04 03:27:06;;;;;;;;;20.67;16.67;;;;;22.08;54.71;101153.88;5207539;22;75701;-91
2021/09/04 03:29:42;;;;;;;;;;;;;;;;;;;;;
2021/09/04 03:36:47;;;;;;;;;;;;;;;;;;;;;
2021/09/04 03:42:37;;;;;;;;;16.33;16.00;;;;;21.97;54.91;101146.13;5033431;28;44895;-93
2021/09/04 03:45:51;;;;;;;;;16.33;15.33;;;;;21.98;54.71;101150.53;5007395;28;45589;-91
2021/09/04 03:48:25;;;;;;;;;17.33;17.00;;;;;22.01;54.92;101153.16;5007780;28;45474;-92
2021/09/04 03:51:06;;;;;;;;;19.33;14.00;;;;;21.95;54.58;101146.16;5010802;28;47043;-91
2021/09/04 03:57:30;;;;;;;;;15.33;15.00;;;;;22.10;54.38;101171.66;4943930;28;45348;-90
2021/09/04 04:01:27;;;;;;;;;19.00;18.33;;;;;22.06;54.54;101169.09;4926973;28;44820;-91
2021/09/04 04:08:38;;;;;;;;;18.00;15.67;;;;;21.95;54.20;101148.84;1693040;22;45923;-92
2021/09/04 04:11:41;;;;;;;;;18.67;16.33;;;;;21.90;54.68;101141.81;5023552;28;45397;-92
2021/09/04 04:14:11;;;;;;;;;21.33;19.33;;;;;22.05;54.48;101168.22;4945095;28;47145;-92
2021/09/04 04:16:47;;;;;;;;;;;;;;;;;;;;;
2021/09/04 04:19:13;;;;;;;;;21.67;18.33;;;;;21.95;54.78;101143.47;5223508;22;69231;-91
2021/09/04 04:21:39;;;;;;;;;17.67;16.33;;;;;21.93;54.64;101141.75;5032762;28;44963;-90
2021/09/04 04:27:26;;;;;;;;;19.33;19.00;;;;;21.86;54.34;101131.19;4977889;28;45423;-92
2021/09/04 04:30:11;;;;;;;;;19.67;18.67;;;;;21.95;54.56;101151.50;4975527;28;45578;-93
2021/09/04 04:32:41;;;;;;;;;20.67;17.67;;;;;21.89;54.63;101137.38;4978792;28;45616;-92
2021/09/04 04:35:35;;;;;;;;;18.00;16.33;;;;;21.95;54.71;101151.50;4979262;28;47929;-92
2021/09/04 04:38:22;;;;;;;;;;;;;;;;;;;;;
2021/09/04 04:41:42;;;;;;;;;22.00;20.00;;;;;21.95;54.67;101156.88;4939727;28;67879;-92
2021/09/04 04:44:35;;;;;;;;;24.00;21.00;;;;;21.96;54.88;101163.06;4871813;28;45473;-92
2021/09/04 04:57:54;;;;;;;;;18.00;15.33;;;;;21.81;55.22;101138.41;5017878;28;46760;-92
2021/09/04 05:00:28;;;;;;;;;16.67;16.67;;;;;21.86;55.49;101147.25;5002144;28;46012;-92
2021/09/04 05:02:54;;;;;;;;;18.33;16.67;;;;;21.78;55.07;101135.81;5002998;28;45480;-93
2021/09/04 05:05:22;;;;;;;;;22.33;18.67;;;;;21.82;55.38;101141.97;5029852;28;45426;-93
2021/09/04 05:07:48;;;;;;;;;23.33;18.67;;;;;21.81;54.93;101149.09;5023259;28;47268;-91
2021/09/04 05:10:47;;;;;;;;;;;;;;;;;;;;;
2021/09/04 05:25:02;;;;;;;;;20.00;17.67;;;;;21.91;55.05;101175.69;5055432;22;45244;-92
2021/09/04 05:27:31;;;;;;;;;21.33;18.00;;;;;21.85;55.53;101164.22;5024956;28;45411;-93
2021/09/04 05:29:59;;;;;;;;;17.00;17.00;;;;;21.87;55.48;101164.19;5025191;28;48229;-92
2021/09/04 05:32:27;;;;;;;;;25.67;17.33;;;;;21.82;55.30;101160.69;5025259;28;45629;-92
2021/09/04 05:34:56;;;;;;;;;16.00;16.00;;;;;21.83;55.26;101159.75;5025245;28;45496;-91
2021/09/04 05:41:44;;;;;;;;;21.00;20.00;;;;;21.85;55.26;101166.00;5112350;22;45533;-92
2021/09/04 05:44:09;;;;;;;;;20.67;19.00;;;;;21.81;55.38;101167.84;5040997;28;45415;-92
2021/09/04 05:46:35;;;;;;;;;24.67;19.33;;;;;21.88;55.25;101181.09;5024498;28;45368;-92
2021/09/04 05:49:02;;;;;;;;;18.67;16.67;;;;;21.81;54.85;101173.19;5025304;28;45347;-92
2021/09/04 05:52:17;;;;;;;;;20.00;19.00;;;;;21.85;55.32;101184.72;5038795;22;47922;-92
2021/09/04 05:57:50;;;;;;;;;30.00;21.00;;;;;21.77;54.95;101174.19;5275947;22;45246;-91
2021/09/04 06:00:20;;;;;;;;;21.33;19.67;;;;;21.88;55.38;101189.13;4984223;28;45197;-91
2021/09/04 06:03:28;;;;;;;;;;;;;;;;;;;;;
2021/09/04 06:06:32;;;;;;;;;23.00;18.33;;;;;21.69;55.06;101166.34;5001242;28;71519;-91
2021/09/04 06:09:25;;;;;;;;;17.00;15.67;;;;;21.72;55.26;101171.59;4906249;28;45347;-92
2021/09/04 06:11:58;;;;;;;;;21.33;20.00;;;;;21.77;55.45;101184.00;4921511;28;45658;-91
2021/09/04 06:14:23;;;;;;;;;21.00;20.00;;;;;21.88;55.45;101205.19;4921669;28;46950;-91
2021/09/04 06:17:05;;;;;;;;;22.67;20.33;;;;;21.80;55.40;101192.84;4920957;28;45821;-91
2021/09/04 06:23:02;;;;;;;;;19.67;18.67;;;;;21.79;55.30;101199.09;4871136;29;45510;-91
2021/09/04 06:25:38;;;;;;;;;;;;;;;;;;;;;
2021/09/04 06:28:04;;;;;;;;;22.33;19.67;;;;;21.83;55.57;101199.91;4926136;22;72979;-92
2021/09/04 06:31:22;;;;;;;;;21.33;19.67;;;;;21.72;55.62;101186.78;4993660;28;45265;-93
2021/09/04 06:38:59;;;;;;;;;17.67;17.00;;;;;21.79;55.41;101193.75;5040899;28;45454;-94
2021/09/04 06:41:24;;;;;;;;;24.00;21.33;;;;;21.84;55.75;101197.25;5022618;28;45459;-82
2021/09/04 06:43:49;;;;;;;;;23.67;21.33;;;;;21.89;55.79;101204.28;5037659;28;45410;-82
2021/09/04 06:46:15;;;;;;;;;24.33;21.00;;;;;21.93;55.51;101208.66;5038224;28;45320;-81
2021/09/04 06:48:40;;;;;;;;;25.33;17.33;;;;;21.91;55.58;101210.50;5038265;28;45363;-81
2021/09/04 06:51:06;;;;;;;;;20.00;17.00;;;;;21.91;55.76;101213.16;5038418;28;45327;-81
2021/09/04 06:53:31;;;;;;;;;22.33;19.33;;;;;21.92;55.57;101221.16;5037497;28;45245;-81
2021/09/04 06:55:56;;;;;;;;;20.33;17.00;;;;;21.91;55.65;101214.06;5037717;28;46386;-81
2021/09/04 06:58:22;;;;;;;;;23.00;22.33;;;;;21.94;55.79;101213.06;5038243;28;45392;-82
2021/09/04 07:00:47;;;;;;;;;18.33;14.33;;;;;21.96;55.95;101216.59;5037985;28;45788;-81
2021/09/04 07:03:12;;;;;;;;;20.33;18.00;;;;;21.96;55.70;101205.91;5038072;28;45466;-81
2021/09/04 07:05:38;;;;;;;;;20.67;18.00;;;;;22.01;55.88;101211.16;5037498;28;46140;-81
2021/09/04 07:08:04;;;;;;;;;26.67;23.00;;;;;22.03;55.59;101212.00;5037809;28;45328;-82
2021/09/04 07:10:29;;;;;;;;;28.00;21.33;;;;;22.05;55.97;101205.69;5037121;28;45520;-82
2021/09/04 07:12:54;;;;;;;;;23.00;20.33;;;;;22.08;56.34;101210.97;5037980;28;45377;-82
2021/09/04 07:15:20;;;;;;;;;21.00;20.33;;;;;22.12;56.26;101211.78;5037777;28;45303;-82
2021/09/04 07:17:45;;;;;;;;;21.33;19.67;;;;;22.14;55.94;101212.63;5037797;28;45396;-82
2021/09/04 07:20:11;;;;;;;;;25.00;22.00;;;;;22.17;56.16;101211.66;5037657;28;45666;-82
2021/09/04 07:22:36;;;;;;;;;26.67;22.67;;;;;22.20;56.36;101208.94;5038105;28;45291;-82
2021/09/04 07:25:02;;;;;;;;;24.00;22.67;;;;;22.24;56.31;101212.41;5037056;28;45669;-81
2021/09/04 07:27:27;;;;;;;;;24.67;20.67;;;;;22.27;55.65;101213.19;5037333;28;45625;-81
2021/09/04 07:29:52;;;;;;;;;29.75;23.50;;;;;22.30;56.22;101214.94;5018162;28;45387;-82
2021/09/04 07:32:18;;;;;;;;;24.67;22.33;;;;;22.32;56.33;101208.63;5037874;28;45331;-81
2021/09/04 07:34:43;;;;;;;;;29.33;23.67;;;;;22.40;56.46;101211.09;5037296;28;46312;-82
2021/09/04 07:37:08;;;;;;;;;24.33;24.33;;;;;22.47;56.15;101217.19;5037501;28;45461;-81
2021/09/04 07:39:34;;;;;;;;;24.67;24.00;;;;;22.54;55.69;101216.13;5037825;28;45352;-82
2021/09/04 07:41:59;;;;;;;;;26.25;24.50;;;;;22.60;55.76;101212.41;5037439;28;45564;-83
2021/09/04 07:44:25;;;;;;;;;26.00;24.50;;;;;22.71;55.90;101222.91;5036950;28;46392;-83
2021/09/04 07:46:50;;;;;;;;;25.00;23.33;;;;;22.81;55.40;101225.31;5037376;28;45295;-82
2021/09/04 07:49:15;;;;;;;;;24.00;23.67;;;;;22.86;55.58;101221.63;5036510;28;45377;-82
2021/09/04 07:51:41;;;;;;;;;34.00;23.67;;;;;22.92;55.53;101225.94;5037488;28;45260;-82
2021/09/04 07:54:06;;;;;;;;;23.25;21.25;;;;;22.98;55.45;101223.06;5037341;28;45606;-82
2021/09/04 07:56:32;;;;;;;;;27.50;26.50;;;;;23.04;55.25;101215.78;5037487;28;45518;-82
2021/09/04 07:58:57;;;;;;;;;24.00;24.00;;;;;23.09;55.14;101221.91;5036788;28;45262;-79
2021/09/04 08:01:22;;;;;;;;;27.75;25.75;;;;;23.18;54.74;101218.09;5036440;28;45399;-82
2021/09/04 08:03:48;;;;;;;;;32.75;26.00;;;;;23.21;55.10;101216.19;5036788;28;45584;-82
2021/09/04 08:06:13;;;;;;;;;34.00;24.75;;;;;23.28;55.16;101224.06;5037070;28;45347;-82
2021/09/04 08:08:40;;;;;;;;;28.33;21.67;;;;;23.25;55.07;101223.22;5037204;28;45628;-81
2021/09/04 08:11:06;;;;;;;;;30.75;29.00;;;;;23.28;55.01;101226.75;5037091;28;45587;-82
2021/09/04 08:13:31;;;;;;;;;33.67;28.67;;;;;23.27;55.24;101223.19;5036024;28;45317;-81
2021/09/04 08:15:56;;;;;;;;;26.00;22.33;;;;;23.30;55.01;101230.25;5036577;28;45707;-80
2021/09/04 08:18:22;;;;;;;;;29.67;26.67;;;;;23.32;55.07;101221.25;5037108;28;45626;-80
2021/09/04 08:20:47;;;;;;;;;26.25;26.25;;;;;23.40;55.59;101228.19;5037076;28;45312;-80
2021/09/04 08:23:13;;;;;;;;;27.25;23.50;;;;;23.43;55.17;101220.94;5035590;28;46256;-80
2021/09/04 08:25:38;;;;;;;;;22.75;22.25;;;;;23.51;55.26;101230.59;5036328;28;45617;-82
2021/09/04 08:28:10;;;;;;;;;30.00;26.67;;;;;23.56;55.28;101228.69;5036787;28;45360;-80
2021/09/04 08:30:36;;;;;;;;;27.25;24.75;;;;;23.60;55.37;101233.03;5036552;28;45394;-81
2021/09/04 08:33:03;;;;;;;;;37.75;29.00;;;;;23.66;55.54;101238.22;5036462;28;45446;-81
2021/09/04 08:35:28;;;;;;;;;32.25;30.25;;;;;23.70;55.57;101237.19;5036344;28;45304;-82
2021/09/04 08:37:55;;;;;;;;;26.75;25.75;;;;;23.74;55.63;101246.03;5036125;28;45426;-80
2021/09/04 08:40:21;;;;;;;;;28.00;26.75;;;;;23.78;55.31;101247.69;5036211;28;45221;-82
2021/09/04 08:42:47;;;;;;;;;31.75;29.00;;;;;23.80;55.27;101247.63;5034928;28;46927;-81
2021/09/04 08:45:13;;;;;;;;;33.50;28.25;;;;;23.83;55.08;101253.81;5036119;28;45365;-82
2021/09/04 08:47:38;;;;;;;;;35.50;32.25;;;;;23.86;55.05;101257.31;5035330;28;45322;-83
2021/09/04 08:50:05;;;;;;;;;34.00;30.25;;;;;23.84;54.78;101257.34;5036340;28;45356;-83
2021/09/04 08:52:31;;;;;;;;;31.00;27.75;;;;;23.87;54.24;101259.06;5036439;28;45517;-80
2021/09/04 08:54:56;;;;;;;;;32.75;27.50;;;;;23.88;54.38;101253.66;5036279;28;45345;-82
2021/09/04 08:57:22;;;;;;;;;30.00;27.50;;;;;23.90;54.40;101262.53;5036038;28;45280;-83
2021/09/04 08:59:49;;;;;;;;;36.00;29.00;;;;;23.96;55.07;101260.59;5036573;28;45355;-83
2021/09/04 09:02:14;;;;;;;;;35.25;32.75;;;;;24.01;54.11;101255.94;5036104;28;45452;-84
2021/09/04 09:04:40;;;;;;;;;35.00;32.00;;;;;24.07;55.07;101255.75;5035974;28;45313;-81
2021/09/04 09:07:08;;;;;;;;;35.50;31.00;;;;;24.18;54.50;101263.47;5018810;28;45349;-81
2021/09/04 09:09:34;;;;;;;;;41.25;32.50;;;;;24.37;54.37;101262.91;5036563;28;45482;-81
2021/09/04 09:11:59;;;;;;;;;37.25;32.00;;;;;24.59;54.30;101271.19;5036129;28;45410;-81
2021/09/04 09:14:28;;;;;;;;;39.00;32.50;;;;;24.84;54.00;101262.28;5036071;28;45477;-82
2021/09/04 09:16:55;;;;;;;;;39.75;33.75;;;;;25.19;53.56;101266.50;5035903;28;45489;-81
2021/09/04 09:19:26;;;;;;;;;33.25;30.50;;;;;25.44;53.49;101257.53;5036130;28;45291;-81
2021/09/04 09:21:54;;;;;;;;;42.75;35.50;;;;;25.66;52.39;101264.78;5035612;28;47027;-81
2021/09/04 09:24:20;;;;;;;;;46.50;35.00;;;;;25.83;52.36;101263.28;5035771;28;45245;-81
2021/09/04 09:26:51;;;;;;;;;35.25;32.00;;;;;25.94;52.29;101268.25;5035779;28;45313;-81
2021/09/04 09:29:34;;;;;;;;;38.75;34.00;;;;;26.07;51.50;101271.34;5035745;28;45426;-81
2021/09/04 09:32:11;;;;;;;;;40.50;34.50;;;;;26.12;51.09;101266.66;5035307;28;47163;-81
2021/09/04 09:34:42;;;;;;;;;37.50;34.25;;;;;26.13;51.50;101268.41;5035798;28;45251;-81
2021/09/04 09:37:09;;;;;;;;;39.25;33.50;;;;;26.17;51.26;101272.72;5035518;28;45223;-80
2021/09/04 09:39:37;;;;;;;;;41.25;35.00;;;;;26.19;51.10;101268.16;5035739;28;45470;-83
2021/09/04 09:42:05;;;;;;;;;44.00;34.75;;;;;26.24;50.49;101271.56;5035357;28;46386;-80
2021/09/04 09:44:32;;;;;;;;;42.25;33.00;;;;;26.30;50.97;101274.94;5035180;28;45351;-82
2021/09/04 09:47:16;;;;;;;;;43.50;34.00;;;;;26.43;51.20;101267.25;5035718;28;45310;-82
2021/09/04 09:49:44;;;;;;;;;35.50;32.50;;;;;26.55;50.81;101265.84;5035698;28;45316;-82
2021/09/04 09:52:14;;;;;;;;;40.75;34.00;;;;;26.67;50.85;101273.41;5035937;28;45177;-81
2021/09/04 09:54:41;;;;;;;;;39.25;32.25;;;;;26.80;50.87;101259.44;5038614;28;45343;-80
2021/09/04 09:57:09;;;;;;;;;35.75;32.50;;;;;27.17;50.67;101271.34;5039303;28;45316;-81
2021/09/04 09:59:35;;;;;;;;;38.75;31.50;;;;;27.40;50.66;101269.44;5039308;28;45314;-81
2021/09/04 10:02:13;;;;;;;;;32.25;30.00;;;;;27.69;49.37;101260.91;5038510;28;45581;-81
2021/09/04 10:04:40;;;;;;;;;32.50;30.50;;;;;28.09;49.50;101273.50;5020608;28;45430;-81
2021/09/04 10:07:07;;;;;;;;;44.50;35.75;;;;;28.58;47.79;101261.22;5037904;28;45357;-81
2021/09/04 10:09:35;;;;;;;;;37.25;31.75;;;;;28.67;48.26;101258.06;5039160;28;45424;-81
2021/09/04 10:12:02;;;;;;;;;37.50;30.50;;;;;28.72;48.24;101256.94;5038010;28;45408;-82
2021/09/04 10:14:27;;;;;;;;;39.50;32.75;;;;;29.02;47.96;101257.16;5038893;28;45363;-81
2021/09/04 10:16:58;;;;;;;;;41.25;33.25;;;;;29.33;47.12;101251.13;5038825;28;45308;-85
2021/09/04 10:19:34;;;;;;;;;34.75;30.50;;;;;29.63;47.05;101247.69;5038755;28;45605;-82
2021/09/04 10:22:05;;;;;;;;;36.00;32.50;;;;;30.06;45.75;101257.06;5038746;28;46145;-82
2021/09/04 10:25:11;;;;;;;;;36.50;32.00;;;;;30.36;45.00;101253.56;5038862;28;45467;-80
2021/09/04 10:27:42;;;;;;;;;39.75;33.25;;;;;30.55;44.85;101251.59;4977178;28;45309;-81
2021/09/04 10:30:33;;;;;;;;;29.00;28.00;;;;;31.22;43.98;101255.75;4977183;28;45505;-81
2021/09/04 10:33:13;;;;;;;;;35.00;29.50;;;;;32.22;42.63;101260.31;4976734;28;47014;-79
2021/09/04 10:35:44;;;;;;;;;34.00;30.25;;;;;33.13;41.65;101258.78;4976872;28;45482;-82
2021/09/04 10:38:18;;;;;;;;;29.50;29.00;;;;;33.97;40.03;101258.25;4976680;28;45389;-82
2021/09/04 10:40:49;;;;;;;;;31.00;27.33;;;;;34.72;38.92;101261.81;4976027;28;45361;-82
2021/09/04 10:43:16;;;;;;;;;30.33;30.00;;;;;35.29;37.55;101258.34;4976821;28;46190;-82
2021/09/04 10:45:44;;;;;;;;;29.67;28.67;;;;;35.85;37.07;101259.38;4976735;28;45440;-82
2021/09/04 10:48:36;;;;;;;;;28.00;26.00;;;;;36.25;36.29;101254.28;4976952;28;45534;-82
2021/09/04 10:51:08;;;;;;;;;32.67;29.00;;;;;36.17;35.67;101259.53;4976947;28;45279;-83
2021/09/04 10:53:43;;;;;;;;;25.33;21.33;;;;;36.70;34.22;101263.31;4976460;28;46071;-82
2021/09/04 10:56:16;;;;;;;;;17.67;17.67;;;;;36.40;33.78;101259.47;4976388;28;45426;-80
2021/09/04 10:58:41;;;;;;;;;19.67;18.00;;;;;36.34;33.55;101258.97;4976678;28;45526;-82
2021/09/04 11:01:07;;;;;;;;;18.00;16.00;;;;;36.27;33.86;101255.88;4976451;28;45491;-82
2021/09/04 11:03:41;;;;;;;;;17.00;15.00;;;;;35.77;34.16;101256.38;4984734;28;45511;-80
2021/09/04 11:06:07;;;;;;;;;15.00;15.00;;;;;35.18;33.65;101251.00;4998262;28;45358;-83
2021/09/04 11:08:43;;;;;;;;;14.00;13.33;;;;;35.13;34.31;101254.13;4998158;28;45503;-82
2021/09/04 11:11:32;;;;;;;;;14.00;12.67;;;;;35.06;32.72;101241.94;4980625;28;45568;-82
2021/09/04 11:14:17;;;;;;;;;12.33;11.00;;;;;34.86;33.64;101250.72;4997915;28;46154;-83
2021/09/04 11:16:52;;;;;;;;;10.67;10.00;;;;;34.39;33.50;101254.28;4997790;28;45265;-82
2021/09/04 11:19:22;;;;;;;;;13.00;11.67;;;;;33.81;34.28;101244.91;4998224;28;45242;-83
2021/09/04 11:21:56;;;;;;;;;12.67;12.00;;;;;33.33;34.97;101238.34;4997939;28;45398;-82
2021/09/04 11:24:26;;;;;;;;;13.00;11.33;;;;;32.97;35.82;101246.25;4997742;28;46203;-82
2021/09/04 11:26:58;;;;;;;;;11.33;10.00;;;;;32.69;35.56;101240.03;4997626;28;45321;-81
2021/09/04 11:29:25;;;;;;;;;12.67;10.00;;;;;32.40;35.48;101235.59;4998175;28;45451;-81
2021/09/04 11:31:59;;;;;;;;;14.00;12.00;;;;;32.32;36.62;101240.69;4997847;28;45403;-81
2021/09/04 11:34:38;;;;;;;;;12.00;11.00;;;;;32.32;36.08;101233.38;4997791;28;46542;-82
2021/09/04 11:37:25;;;;;;;;;12.33;10.00;;;;;32.33;36.03;101229.69;5002086;28;45469;-82
2021/09/04 11:39:56;;;;;;;;;12.33;11.33;;;;;32.23;36.92;101223.13;5017285;28;45450;-82
2021/09/04 11:42:26;;;;;;;;;34.00;31.00;;;;;32.16;37.08;101233.53;5017284;28;45366;-82
2021/09/04 11:45:19;;;;;;;;;30.50;28.75;;;;;32.11;37.73;101224.84;5017447;28;45330;-83
2021/09/04 11:47:46;;;;;;;;;24.00;22.00;;;;;32.12;37.26;101230.16;5017397;28;45327;-83
2021/09/04 11:50:29;;;;;;;;;12.67;12.67;;;;;32.09;36.67;101227.63;5017180;28;45439;-82
2021/09/04 11:52:55;;;;;;;;;12.67;12.33;;;;;32.06;37.82;101227.84;5017514;28;45325;-83
2021/09/04 11:55:22;;;;;;;;;11.33;10.33;;;;;31.99;37.44;101232.78;5017552;28;45449;-83
2021/09/04 11:57:49;;;;;;;;;12.00;10.00;;;;;31.89;37.34;101226.22;5017376;28;45371;-83
2021/09/04 12:00:20;;;;;;;;;10.33;10.33;;;;;31.75;37.55;101230.69;5017509;28;45455;-83
2021/09/04 12:02:52;;;;;;;;;13.67;11.00;;;;;31.52;36.65;101218.59;5016295;28;45494;-83
2021/09/04 12:05:24;;;;;;;;;8.33;8.33;;;;;31.31;37.31;101219.88;5017287;28;46414;-83
2021/09/04 12:07:53;;;;;;;;;10.67;10.67;;;;;31.19;37.63;101223.34;5017144;28;45478;-83
2021/09/04 12:10:29;;;;;;;;;14.00;12.33;;;;;31.12;37.85;101216.56;5017022;28;45313;-81
2021/09/04 12:13:03;;;;;;;;;10.00;10.00;;;;;31.08;38.56;101211.34;5017273;28;45292;-83
2021/09/04 12:15:31;;;;;;;;;9.00;8.67;;;;;31.13;38.31;101208.34;5016196;28;45438;-80
2021/09/04 12:18:08;;;;;;;;;11.00;10.00;;;;;31.16;38.74;101207.25;5017068;28;45471;-81
2021/09/04 12:20:37;;;;;;;;;10.67;9.00;;;;;31.15;38.07;101206.41;5017389;28;45344;-82
2021/09/04 12:23:16;;;;;;;;;9.33;7.33;;;;;31.12;38.01;101201.16;5017164;28;45249;-82
2021/09/04 12:25:42;;;;;;;;;9.67;9.00;;;;;31.04;38.44;101198.03;5016720;28;46230;-81
2021/09/04 12:28:13;;;;;;;;;11.00;9.67;;;;;30.90;38.36;101193.50;5016167;28;45446;-81
2021/09/04 12:30:59;;;;;;;;;8.00;8.00;;;;;30.82;37.86;101194.78;5017579;28;45276;-81
2021/09/04 12:33:26;;;;;;;;;9.67;9.67;;;;;30.73;37.69;101200.81;5016981;28;45550;-82
2021/09/04 12:36:07;;;;;;;;;10.67;7.67;;;;;30.60;37.93;101200.66;5016479;28;46191;-81
2021/09/04 12:38:41;;;;;;;;;7.67;6.33;;;;;30.49;37.77;101187.75;5016401;28;45265;-83
2021/09/04 12:41:13;;;;;;;;;7.33;7.33;;;;;30.42;38.55;101189.09;4999256;28;45446;-83
2021/09/04 12:44:02;;;;;;;;;9.33;8.67;;;;;30.33;38.37;101183.28;4999730;28;45480;-81
2021/09/04 12:46:50;;;;;;;;;8.00;8.00;;;;;30.23;38.26;101191.03;5016449;28;45374;-83
2021/09/04 12:49:31;;;;;;;;;10.00;10.00;;;;;30.10;38.52;101182.75;5016431;28;45480;-82
2021/09/04 12:52:13;;;;;;;;;7.67;7.67;;;;;30.01;38.47;101188.72;5016601;28;45269;-82
2021/09/04 12:54:43;;;;;;;;;13.67;11.00;;;;;29.88;38.86;101178.59;4998970;28;45419;-83
2021/09/04 12:57:20;;;;;;;;;8.67;7.67;;;;;29.76;38.88;101171.19;5015910;28;46391;-81
2021/09/04 13:00:00;;;;;;;;;10.33;8.00;;;;;29.66;39.34;101179.81;5016808;28;45428;-81
2021/09/04 13:02:28;;;;;;;;;10.00;9.33;;;;;29.58;39.39;101184.75;5016109;28;45506;-82
2021/09/04 13:05:05;;;;;;;;;10.00;9.00;;;;;29.49;39.42;101186.16;5016503;28;45312;-82
2021/09/04 13:07:43;;;;;;;;;9.67;8.33;;;;;29.37;39.14;101179.59;4997493;28;48490;-82
2021/09/04 13:10:10;;;;;;;;;9.67;9.67;;;;;29.28;39.73;101174.69;5016458;28;45415;-82
2021/09/04 13:12:36;;;;;;;;;11.00;9.00;;;;;29.18;40.28;101172.50;5016650;28;45371;-82
2021/09/04 13:15:06;;;;;;;;;7.67;7.67;;;;;29.10;40.04;101167.50;5016623;28;45360;-82
2021/09/04 13:17:34;;;;;;;;;14.00;9.00;;;;;28.96;40.38;101157.38;5016099;28;46453;-90